sensor_id;sensor_type;location;lat;lon;timestamp;temperature;humidity
45803;DHT22;31504;51.716;9.184;2023-09-19T00:02:35;22.80;67.10
45803;DHT22;31504;51.716;9.184;2023-09-19T00:05:37;22.80;67.10
45803;DHT22;31504;51.716;9.184;2023-09-19T00:08:44;22.80;67.10
45803;DHT22;31504;51.716;9.184;2023-09-19T00:11:45;22.80;67.10
45803;DHT22;31504;51.716;9.184;2023-09-19T00:14:47;22.80;67.10
45803;DHT22;31504;51.716;9.184;2023-09-19T00:17:48;22.80;67.10
45803;DHT22;31504;51.716;9.184;2023-09-19T00:20:48;22.80;67.00
45803;DHT22;31504;51.716;9.184;2023-09-19T00:23:49;22.80;67.20
45803;DHT22;31504;51.716;9.184;2023-09-19T00:26:51;22.80;67.30
45803;DHT22;31504;51.716;9.184;2023-09-19T00:29:52;22.80;67.00
45803;DHT22;31504;51.716;9.184;2023-09-19T00:32:53;22.80;67.00
45803;DHT22;31504;51.716;9.184;2023-09-19T00:35:55;22.70;67.20
45803;DHT22;31504;51.716;9.184;2023-09-19T00:38:56;22.80;67.00
45803;DHT22;31504;51.716;9.184;2023-09-19T00:41:57;22.80;67.10
45803;DHT22;31504;51.716;9.184;2023-09-19T00:44:57;22.80;66.90
45803;DHT22;31504;51.716;9.184;2023-09-19T00:47:59;22.80;66.80
45803;DHT22;31504;51.716;9.184;2023-09-19T00:51:03;22.80;66.80
45803;DHT22;31504;51.716;9.184;2023-09-19T00:54:05;22.80;66.70
45803;DHT22;31504;51.716;9.184;2023-09-19T00:57:05;22.70;66.70
45803;DHT22;31504;51.716;9.184;2023-09-19T01:00:06;22.80;66.70
45803;DHT22;31504;51.716;9.184;2023-09-19T01:03:08;22.80;66.70
45803;DHT22;31504;51.716;9.184;2023-09-19T01:06:10;22.70;66.60
45803;DHT22;31504;51.716;9.184;2023-09-19T01:09:10;22.70;66.70
45803;DHT22;31504;51.716;9.184;2023-09-19T01:12:11;22.70;66.60
45803;DHT22;31504;51.716;9.184;2023-09-19T01:15:18;22.70;66.60
45803;DHT22;31504;51.716;9.184;2023-09-19T01:18:29;22.70;66.60
45803;DHT22;31504;51.716;9.184;2023-09-19T01:21:42;22.70;66.60
45803;DHT22;31504;51.716;9.184;2023-09-19T01:31:01;22.70;66.60
45803;DHT22;31504;51.716;9.184;2023-09-19T01:34:03;22.70;66.50
45803;DHT22;31504;51.716;9.184;2023-09-19T01:37:08;22.70;66.50
45803;DHT22;31504;51.716;9.184;2023-09-19T01:40:08;22.70;66.50
45803;DHT22;31504;51.716;9.184;2023-09-19T01:43:31;22.70;66.40
45803;DHT22;31504;51.716;9.184;2023-09-19T01:46:34;22.70;66.50
45803;DHT22;31504;51.716;9.184;2023-09-19T01:49:39;22.70;66.30
45803;DHT22;31504;51.716;9.184;2023-09-19T01:52:54;22.70;66.20
45803;DHT22;31504;51.716;9.184;2023-09-19T01:55:54;22.70;67.70
45803;DHT22;31504;51.716;9.184;2023-09-19T01:58:56;22.70;66.30
45803;DHT22;31504;51.716;9.184;2023-09-19T02:01:57;22.70;66.30
45803;DHT22;31504;51.716;9.184;2023-09-19T02:04:58;22.70;66.20
45803;DHT22;31504;51.716;9.184;2023-09-19T02:07:58;22.70;66.00
45803;DHT22;31504;51.716;9.184;2023-09-19T02:10:59;22.70;66.10
45803;DHT22;31504;51.716;9.184;2023-09-19T02:14:00;22.70;66.00
45803;DHT22;31504;51.716;9.184;2023-09-19T02:17:00;22.70;65.80
45803;DHT22;31504;51.716;9.184;2023-09-19T02:20:01;22.70;65.80
45803;DHT22;31504;51.716;9.184;2023-09-19T02:23:04;22.70;65.70
45803;DHT22;31504;51.716;9.184;2023-09-19T02:26:04;22.70;65.50
45803;DHT22;31504;51.716;9.184;2023-09-19T02:29:05;22.70;65.80
45803;DHT22;31504;51.716;9.184;2023-09-19T02:32:06;22.70;65.60
45803;DHT22;31504;51.716;9.184;2023-09-19T02:35:06;22.70;67.60
45803;DHT22;31504;51.716;9.184;2023-09-19T02:38:07;22.70;65.70
45803;DHT22;31504;51.716;9.184;2023-09-19T02:41:12;22.70;66.50
45803;DHT22;31504;51.716;9.184;2023-09-19T02:44:12;22.70;65.30
45803;DHT22;31504;51.716;9.184;2023-09-19T02:47:14;22.70;65.60
45803;DHT22;31504;51.716;9.184;2023-09-19T02:50:15;22.70;64.90
45803;DHT22;31504;51.716;9.184;2023-09-19T02:53:16;22.70;64.80
45803;DHT22;31504;51.716;9.184;2023-09-19T02:56:16;22.70;66.20
45803;DHT22;31504;51.716;9.184;2023-09-19T02:59:17;22.70;67.20
45803;DHT22;31504;51.716;9.184;2023-09-19T03:02:19;22.70;66.60
45803;DHT22;31504;51.716;9.184;2023-09-19T03:05:20;22.60;66.60
45803;DHT22;31504;51.716;9.184;2023-09-19T03:08:21;22.60;64.80
45803;DHT22;31504;51.716;9.184;2023-09-19T03:11:22;22.60;68.10
45803;DHT22;31504;51.716;9.184;2023-09-19T03:14:23;22.60;68.80
45803;DHT22;31504;51.716;9.184;2023-09-19T03:17:23;22.60;68.40
45803;DHT22;31504;51.716;9.184;2023-09-19T03:20:24;22.60;68.30
45803;DHT22;31504;51.716;9.184;2023-09-19T03:23:26;22.60;65.40
45803;DHT22;31504;51.716;9.184;2023-09-19T03:26:26;22.60;67.00
45803;DHT22;31504;51.716;9.184;2023-09-19T03:29:27;22.60;68.30
45803;DHT22;31504;51.716;9.184;2023-09-19T03:32:27;22.60;68.80
45803;DHT22;31504;51.716;9.184;2023-09-19T03:35:28;22.60;68.80
45803;DHT22;31504;51.716;9.184;2023-09-19T03:38:28;22.60;66.40
45803;DHT22;31504;51.716;9.184;2023-09-19T03:41:29;22.60;67.70
45803;DHT22;31504;51.716;9.184;2023-09-19T03:44:30;22.60;67.10
45803;DHT22;31504;51.716;9.184;2023-09-19T03:47:31;22.60;68.60
45803;DHT22;31504;51.716;9.184;2023-09-19T03:50:31;22.60;65.60
45803;DHT22;31504;51.716;9.184;2023-09-19T03:53:33;22.60;67.00
45803;DHT22;31504;51.716;9.184;2023-09-19T03:56:33;22.60;67.10
45803;DHT22;31504;51.716;9.184;2023-09-19T03:59:34;22.60;68.10
45803;DHT22;31504;51.716;9.184;2023-09-19T04:02:35;22.60;67.90
45803;DHT22;31504;51.716;9.184;2023-09-19T04:05:36;22.60;68.70
45803;DHT22;31504;51.716;9.184;2023-09-19T04:08:36;22.60;67.80
45803;DHT22;31504;51.716;9.184;2023-09-19T04:11:37;22.60;67.90
45803;DHT22;31504;51.716;9.184;2023-09-19T04:14:37;22.60;68.50
45803;DHT22;31504;51.716;9.184;2023-09-19T04:17:38;22.60;67.10
45803;DHT22;31504;51.716;9.184;2023-09-19T04:20:39;22.60;68.40
45803;DHT22;31504;51.716;9.184;2023-09-19T04:23:39;22.60;68.10
45803;DHT22;31504;51.716;9.184;2023-09-19T04:26:40;22.60;67.90
45803;DHT22;31504;51.716;9.184;2023-09-19T04:29:40;22.60;65.40
45803;DHT22;31504;51.716;9.184;2023-09-19T04:32:41;22.60;68.20
45803;DHT22;31504;51.716;9.184;2023-09-19T04:35:42;22.60;66.30
45803;DHT22;31504;51.716;9.184;2023-09-19T04:38:42;22.60;67.90
45803;DHT22;31504;51.716;9.184;2023-09-19T04:41:43;22.60;68.40
45803;DHT22;31504;51.716;9.184;2023-09-19T04:44:46;22.50;68.40
45803;DHT22;31504;51.716;9.184;2023-09-19T04:47:49;22.60;69.00
45803;DHT22;31504;51.716;9.184;2023-09-19T04:50:50;22.50;68.70
45803;DHT22;31504;51.716;9.184;2023-09-19T04:53:51;22.60;68.90
45803;DHT22;31504;51.716;9.184;2023-09-19T04:56:51;22.50;69.00
45803;DHT22;31504;51.716;9.184;2023-09-19T04:59:52;22.60;69.20
45803;DHT22;31504;51.716;9.184;2023-09-19T05:02:54;22.50;68.90
45803;DHT22;31504;51.716;9.184;2023-09-19T05:05:55;22.50;68.90
45803;DHT22;31504;51.716;9.184;2023-09-19T05:08:55;22.50;69.00
45803;DHT22;31504;51.716;9.184;2023-09-19T05:11:56;22.50;69.20
45803;DHT22;31504;51.716;9.184;2023-09-19T05:14:57;22.50;68.80
45803;DHT22;31504;51.716;9.184;2023-09-19T05:17:57;22.50;69.10
45803;DHT22;31504;51.716;9.184;2023-09-19T05:20:58;22.50;69.20
45803;DHT22;31504;51.716;9.184;2023-09-19T05:24:01;22.50;69.20
45803;DHT22;31504;51.716;9.184;2023-09-19T05:27:02;22.50;69.10
45803;DHT22;31504;51.716;9.184;2023-09-19T05:30:05;22.50;68.80
45803;DHT22;31504;51.716;9.184;2023-09-19T05:33:05;22.50;65.70
45803;DHT22;31504;51.716;9.184;2023-09-19T05:36:06;22.50;68.90
45803;DHT22;31504;51.716;9.184;2023-09-19T05:39:07;22.50;68.00
45803;DHT22;31504;51.716;9.184;2023-09-19T05:42:09;22.50;68.20
45803;DHT22;31504;51.716;9.184;2023-09-19T05:45:10;22.50;68.10
45803;DHT22;31504;51.716;9.184;2023-09-19T05:48:13;22.50;68.00
45803;DHT22;31504;51.716;9.184;2023-09-19T05:51:13;22.50;68.80
45803;DHT22;31504;51.716;9.184;2023-09-19T05:54:14;22.50;68.90
45803;DHT22;31504;51.716;9.184;2023-09-19T05:57:15;22.50;69.00
45803;DHT22;31504;51.716;9.184;2023-09-19T06:00:15;22.50;67.70
45803;DHT22;31504;51.716;9.184;2023-09-19T06:03:18;22.50;68.70
45803;DHT22;31504;51.716;9.184;2023-09-19T06:06:19;22.50;68.20
45803;DHT22;31504;51.716;9.184;2023-09-19T06:09:19;22.50;69.10
45803;DHT22;31504;51.716;9.184;2023-09-19T06:12:20;22.50;67.00
45803;DHT22;31504;51.716;9.184;2023-09-19T06:15:20;22.50;68.40
45803;DHT22;31504;51.716;9.184;2023-09-19T06:18:23;22.50;68.20
45803;DHT22;31504;51.716;9.184;2023-09-19T06:21:26;22.50;67.90
45803;DHT22;31504;51.716;9.184;2023-09-19T06:24:27;22.50;65.60
45803;DHT22;31504;51.716;9.184;2023-09-19T06:27:28;22.50;63.30
45803;DHT22;31504;51.716;9.184;2023-09-19T06:30:29;22.50;65.00
45803;DHT22;31504;51.716;9.184;2023-09-19T06:33:31;22.50;68.00
45803;DHT22;31504;51.716;9.184;2023-09-19T06:36:31;22.50;68.50
45803;DHT22;31504;51.716;9.184;2023-09-19T06:39:32;22.40;66.60
45803;DHT22;31504;51.716;9.184;2023-09-19T06:42:33;22.50;66.60
45803;DHT22;31504;51.716;9.184;2023-09-19T06:45:33;22.40;66.30
45803;DHT22;31504;51.716;9.184;2023-09-19T06:48:34;22.40;68.20
45803;DHT22;31504;51.716;9.184;2023-09-19T06:51:34;22.40;67.30
45803;DHT22;31504;51.716;9.184;2023-09-19T06:54:36;22.40;66.60
45803;DHT22;31504;51.716;9.184;2023-09-19T06:57:39;22.40;67.30
45803;DHT22;31504;51.716;9.184;2023-09-19T07:00:40;22.40;64.10
45803;DHT22;31504;51.716;9.184;2023-09-19T07:03:41;22.40;62.30
45803;DHT22;31504;51.716;9.184;2023-09-19T07:06:41;22.50;65.30
45803;DHT22;31504;51.716;9.184;2023-09-19T07:09:42;22.40;59.00
45803;DHT22;31504;51.716;9.184;2023-09-19T07:12:43;22.40;58.80
45803;DHT22;31504;51.716;9.184;2023-09-19T07:15:44;22.40;58.40
45803;DHT22;31504;51.716;9.184;2023-09-19T07:18:47;22.40;57.80
45803;DHT22;31504;51.716;9.184;2023-09-19T07:21:48;22.40;57.80
45803;DHT22;31504;51.716;9.184;2023-09-19T07:24:50;22.30;58.50
45803;DHT22;31504;51.716;9.184;2023-09-19T07:27:51;22.30;60.70
45803;DHT22;31504;51.716;9.184;2023-09-19T07:30:51;22.30;58.20
45803;DHT22;31504;51.716;9.184;2023-09-19T07:33:52;22.20;58.50
45803;DHT22;31504;51.716;9.184;2023-09-19T07:36:53;22.30;58.50
45803;DHT22;31504;51.716;9.184;2023-09-19T07:39:54;22.30;58.20
45803;DHT22;31504;51.716;9.184;2023-09-19T07:42:55;22.30;58.20
45803;DHT22;31504;51.716;9.184;2023-09-19T07:45:55;22.30;58.00
45803;DHT22;31504;51.716;9.184;2023-09-19T07:48:56;22.30;58.20
45803;DHT22;31504;51.716;9.184;2023-09-19T07:51:57;22.30;58.20
45803;DHT22;31504;51.716;9.184;2023-09-19T07:54:59;22.30;58.20
45803;DHT22;31504;51.716;9.184;2023-09-19T07:58:01;22.30;58.20
45803;DHT22;31504;51.716;9.184;2023-09-19T08:01:08;22.30;58.60
45803;DHT22;31504;51.716;9.184;2023-09-19T08:04:09;22.30;58.10
45803;DHT22;31504;51.716;9.184;2023-09-19T08:07:09;22.30;58.30
45803;DHT22;31504;51.716;9.184;2023-09-19T08:10:11;22.30;58.10
45803;DHT22;31504;51.716;9.184;2023-09-19T08:13:16;22.30;58.10
45803;DHT22;31504;51.716;9.184;2023-09-19T08:16:17;22.30;58.20
45803;DHT22;31504;51.716;9.184;2023-09-19T08:19:19;22.30;58.00
45803;DHT22;31504;51.716;9.184;2023-09-19T08:22:23;22.30;58.00
45803;DHT22;31504;51.716;9.184;2023-09-19T08:25:24;22.30;57.90
45803;DHT22;31504;51.716;9.184;2023-09-19T08:28:28;22.30;58.10
45803;DHT22;31504;51.716;9.184;2023-09-19T08:31:30;22.40;58.50
45803;DHT22;31504;51.716;9.184;2023-09-19T08:34:30;22.40;57.90
45803;DHT22;31504;51.716;9.184;2023-09-19T08:37:33;22.30;58.00
45803;DHT22;31504;51.716;9.184;2023-09-19T08:40:37;22.30;58.00
45803;DHT22;31504;51.716;9.184;2023-09-19T08:43:40;22.40;58.40
45803;DHT22;31504;51.716;9.184;2023-09-19T08:46:41;22.40;57.90
45803;DHT22;31504;51.716;9.184;2023-09-19T08:53:01;22.40;57.90
45803;DHT22;31504;51.716;9.184;2023-09-19T08:56:07;22.40;57.90
45803;DHT22;31504;51.716;9.184;2023-09-19T08:59:08;22.40;57.80
45803;DHT22;31504;51.716;9.184;2023-09-19T09:02:12;22.30;59.80
45803;DHT22;31504;51.716;9.184;2023-09-19T09:05:14;22.30;57.70
45803;DHT22;31504;51.716;9.184;2023-09-19T09:08:17;22.30;57.90
45803;DHT22;31504;51.716;9.184;2023-09-19T09:11:19;22.30;57.80
45803;DHT22;31504;51.716;9.184;2023-09-19T09:14:20;22.30;57.80
45803;DHT22;31504;51.716;9.184;2023-09-19T09:17:21;22.40;57.70
45803;DHT22;31504;51.716;9.184;2023-09-19T09:20:22;22.40;57.90
45803;DHT22;31504;51.716;9.184;2023-09-19T09:23:22;22.40;59.80
45803;DHT22;31504;51.716;9.184;2023-09-19T09:26:42;22.40;57.90
45803;DHT22;31504;51.716;9.184;2023-09-19T09:32:43;22.40;57.80
45803;DHT22;31504;51.716;9.184;2023-09-19T09:38:56;22.40;58.70
45803;DHT22;31504;51.716;9.184;2023-09-19T09:41:57;22.40;58.10
45803;DHT22;31504;51.716;9.184;2023-09-19T09:48:15;22.30;57.70
45803;DHT22;31504;51.716;9.184;2023-09-19T09:51:30;22.40;57.80
45803;DHT22;31504;51.716;9.184;2023-09-19T09:54:31;22.40;57.90
45803;DHT22;31504;51.716;9.184;2023-09-19T09:57:38;22.40;57.80
45803;DHT22;31504;51.716;9.184;2023-09-19T10:00:52;22.40;57.70
45803;DHT22;31504;51.716;9.184;2023-09-19T10:03:59;22.50;57.80
45803;DHT22;31504;51.716;9.184;2023-09-19T10:07:00;22.50;58.00
45803;DHT22;31504;51.716;9.184;2023-09-19T10:10:06;22.40;57.80
45803;DHT22;31504;51.716;9.184;2023-09-19T10:13:28;22.40;57.90
45803;DHT22;31504;51.716;9.184;2023-09-19T10:16:30;22.40;57.90
45803;DHT22;31504;51.716;9.184;2023-09-19T10:19:37;22.40;57.80
45803;DHT22;31504;51.716;9.184;2023-09-19T10:22:46;22.40;57.80
45803;DHT22;31504;51.716;9.184;2023-09-19T10:25:57;22.40;58.00
45803;DHT22;31504;51.716;9.184;2023-09-19T10:28:59;22.40;57.80
45803;DHT22;31504;51.716;9.184;2023-09-19T10:32:01;22.40;58.00
45803;DHT22;31504;51.716;9.184;2023-09-19T10:35:06;22.40;57.40
45803;DHT22;31504;51.716;9.184;2023-09-19T10:38:07;22.50;57.70
45803;DHT22;31504;51.716;9.184;2023-09-19T10:41:09;22.50;57.60
45803;DHT22;31504;51.716;9.184;2023-09-19T10:44:10;22.50;57.60
45803;DHT22;31504;51.716;9.184;2023-09-19T10:47:12;22.50;57.60
45803;DHT22;31504;51.716;9.184;2023-09-19T10:50:20;22.50;57.40
45803;DHT22;31504;51.716;9.184;2023-09-19T10:53:22;22.50;57.40
45803;DHT22;31504;51.716;9.184;2023-09-19T10:56:27;22.40;57.10
45803;DHT22;31504;51.716;9.184;2023-09-19T10:59:28;22.40;57.40
45803;DHT22;31504;51.716;9.184;2023-09-19T11:02:35;22.40;57.80
45803;DHT22;31504;51.716;9.184;2023-09-19T11:05:36;22.40;57.20
45803;DHT22;31504;51.716;9.184;2023-09-19T11:08:54;22.40;56.90
45803;DHT22;31504;51.716;9.184;2023-09-19T11:11:58;22.40;57.00
45803;DHT22;31504;51.716;9.184;2023-09-19T11:15:00;22.40;56.60
45803;DHT22;31504;51.716;9.184;2023-09-19T11:18:06;22.40;56.30
45803;DHT22;31504;51.716;9.184;2023-09-19T11:24:30;22.30;56.40
45803;DHT22;31504;51.716;9.184;2023-09-19T11:27:31;22.30;56.70
45803;DHT22;31504;51.716;9.184;2023-09-19T11:30:35;22.30;55.50
45803;DHT22;31504;51.716;9.184;2023-09-19T11:33:37;22.20;56.00
45803;DHT22;31504;51.716;9.184;2023-09-19T11:36:39;22.20;56.10
45803;DHT22;31504;51.716;9.184;2023-09-19T11:39:40;22.20;56.30
45803;DHT22;31504;51.716;9.184;2023-09-19T11:48:46;22.20;55.00
45803;DHT22;31504;51.716;9.184;2023-09-19T11:51:48;22.10;55.30
45803;DHT22;31504;51.716;9.184;2023-09-19T11:55:00;22.10;55.10
45803;DHT22;31504;51.716;9.184;2023-09-19T11:58:02;22.10;57.00
45803;DHT22;31504;51.716;9.184;2023-09-19T12:01:02;22.10;54.30
45803;DHT22;31504;51.716;9.184;2023-09-19T12:04:08;22.10;55.20
45803;DHT22;31504;51.716;9.184;2023-09-19T12:07:11;22.10;54.70
45803;DHT22;31504;51.716;9.184;2023-09-19T12:10:15;22.10;53.60
45803;DHT22;31504;51.716;9.184;2023-09-19T12:13:18;22.10;54.50
45803;DHT22;31504;51.716;9.184;2023-09-19T12:16:19;22.10;53.80
45803;DHT22;31504;51.716;9.184;2023-09-19T12:19:23;22.00;54.00
45803;DHT22;31504;51.716;9.184;2023-09-19T12:22:24;22.10;55.10
45803;DHT22;31504;51.716;9.184;2023-09-19T12:25:25;22.10;54.50
45803;DHT22;31504;51.716;9.184;2023-09-19T12:28:27;22.10;54.10
45803;DHT22;31504;51.716;9.184;2023-09-19T12:31:30;22.00;53.30
45803;DHT22;31504;51.716;9.184;2023-09-19T12:34:36;22.00;53.20
45803;DHT22;31504;51.716;9.184;2023-09-19T12:37:43;22.10;53.60
45803;DHT22;31504;51.716;9.184;2023-09-19T12:40:48;22.10;53.50
45803;DHT22;31504;51.716;9.184;2023-09-19T12:43:52;22.10;53.40
45803;DHT22;31504;51.716;9.184;2023-09-19T12:46:54;22.10;55.60
45803;DHT22;31504;51.716;9.184;2023-09-19T12:53:08;22.10;55.00
45803;DHT22;31504;51.716;9.184;2023-09-19T12:56:24;22.20;55.50
45803;DHT22;31504;51.716;9.184;2023-09-19T12:59:30;22.20;54.10
45803;DHT22;31504;51.716;9.184;2023-09-19T13:02:36;22.30;54.60
45803;DHT22;31504;51.716;9.184;2023-09-19T13:05:47;22.30;54.20
45803;DHT22;31504;51.716;9.184;2023-09-19T13:08:47;22.30;54.10
45803;DHT22;31504;51.716;9.184;2023-09-19T13:11:54;22.30;54.10
45803;DHT22;31504;51.716;9.184;2023-09-19T13:15:08;22.30;54.10
45803;DHT22;31504;51.716;9.184;2023-09-19T13:18:13;22.30;54.10
45803;DHT22;31504;51.716;9.184;2023-09-19T13:21:15;22.30;55.30
45803;DHT22;31504;51.716;9.184;2023-09-19T13:24:23;22.30;54.10
45803;DHT22;31504;51.716;9.184;2023-09-19T13:27:26;22.30;54.40
45803;DHT22;31504;51.716;9.184;2023-09-19T13:30:27;22.30;54.70
45803;DHT22;31504;51.716;9.184;2023-09-19T13:33:34;22.30;53.70
45803;DHT22;31504;51.716;9.184;2023-09-19T13:36:35;22.20;54.30
45803;DHT22;31504;51.716;9.184;2023-09-19T13:39:37;22.20;54.10
45803;DHT22;31504;51.716;9.184;2023-09-19T13:42:42;22.10;53.20
45803;DHT22;31504;51.716;9.184;2023-09-19T13:45:43;22.00;54.90
45803;DHT22;31504;51.716;9.184;2023-09-19T13:48:43;21.90;52.30
45803;DHT22;31504;51.716;9.184;2023-09-19T13:51:44;21.90;52.00
45803;DHT22;31504;51.716;9.184;2023-09-19T13:54:44;21.90;52.90
45803;DHT22;31504;51.716;9.184;2023-09-19T13:57:46;21.90;53.60
45803;DHT22;31504;51.716;9.184;2023-09-19T14:00:47;21.80;51.70
45803;DHT22;31504;51.716;9.184;2023-09-19T14:03:47;21.80;52.10
45803;DHT22;31504;51.716;9.184;2023-09-19T14:06:51;21.80;52.00
45803;DHT22;31504;51.716;9.184;2023-09-19T14:09:51;21.90;52.90
45803;DHT22;31504;51.716;9.184;2023-09-19T14:12:53;21.80;52.30
45803;DHT22;31504;51.716;9.184;2023-09-19T14:15:53;21.80;54.40
45803;DHT22;31504;51.716;9.184;2023-09-19T14:18:54;21.90;52.60
45803;DHT22;31504;51.716;9.184;2023-09-19T14:21:54;21.70;53.20
45803;DHT22;31504;51.716;9.184;2023-09-19T14:24:58;21.80;52.60
45803;DHT22;31504;51.716;9.184;2023-09-19T14:28:00;21.70;52.90
45803;DHT22;31504;51.716;9.184;2023-09-19T14:31:03;21.80;52.80
45803;DHT22;31504;51.716;9.184;2023-09-19T14:34:05;21.80;52.50
45803;DHT22;31504;51.716;9.184;2023-09-19T14:37:06;21.70;53.20
45803;DHT22;31504;51.716;9.184;2023-09-19T14:40:07;21.70;52.70
45803;DHT22;31504;51.716;9.184;2023-09-19T14:43:09;21.70;52.80
45803;DHT22;31504;51.716;9.184;2023-09-19T14:46:09;21.70;53.60
45803;DHT22;31504;51.716;9.184;2023-09-19T14:49:11;21.80;53.20
45803;DHT22;31504;51.716;9.184;2023-09-19T14:52:11;21.80;53.20
45803;DHT22;31504;51.716;9.184;2023-09-19T14:55:15;21.70;53.20
45803;DHT22;31504;51.716;9.184;2023-09-19T14:58:16;21.70;52.80
45803;DHT22;31504;51.716;9.184;2023-09-19T15:01:17;21.80;53.00
45803;DHT22;31504;51.716;9.184;2023-09-19T15:04:17;21.80;53.00
45803;DHT22;31504;51.716;9.184;2023-09-19T15:07:19;21.90;53.30
45803;DHT22;31504;51.716;9.184;2023-09-19T15:10:19;21.80;53.40
45803;DHT22;31504;51.716;9.184;2023-09-19T15:13:20;21.80;53.20
45803;DHT22;31504;51.716;9.184;2023-09-19T15:16:21;21.80;54.40
45803;DHT22;31504;51.716;9.184;2023-09-19T15:19:22;21.80;54.00
45803;DHT22;31504;51.716;9.184;2023-09-19T15:22:22;21.80;53.70
45803;DHT22;31504;51.716;9.184;2023-09-19T15:25:23;21.80;53.20
45803;DHT22;31504;51.716;9.184;2023-09-19T15:28:23;21.70;53.60
45803;DHT22;31504;51.716;9.184;2023-09-19T15:31:24;21.80;53.50
45803;DHT22;31504;51.716;9.184;2023-09-19T15:34:26;21.80;53.10
45803;DHT22;31504;51.716;9.184;2023-09-19T15:37:26;21.80;53.30
45803;DHT22;31504;51.716;9.184;2023-09-19T15:40:27;21.90;53.10
45803;DHT22;31504;51.716;9.184;2023-09-19T15:43:30;21.80;52.80
45803;DHT22;31504;51.716;9.184;2023-09-19T15:46:31;21.80;52.60
45803;DHT22;31504;51.716;9.184;2023-09-19T15:49:33;21.70;52.50
45803;DHT22;31504;51.716;9.184;2023-09-19T15:52:34;21.70;52.60
45803;DHT22;31504;51.716;9.184;2023-09-19T15:55:39;21.70;52.20
45803;DHT22;31504;51.716;9.184;2023-09-19T15:58:40;21.70;52.50
45803;DHT22;31504;51.716;9.184;2023-09-19T16:01:41;21.70;53.00
45803;DHT22;31504;51.716;9.184;2023-09-19T16:04:43;21.60;53.10
45803;DHT22;31504;51.716;9.184;2023-09-19T16:07:45;21.60;52.60
45803;DHT22;31504;51.716;9.184;2023-09-19T16:10:47;21.70;52.70
45803;DHT22;31504;51.716;9.184;2023-09-19T16:13:48;21.70;52.70
45803;DHT22;31504;51.716;9.184;2023-09-19T16:16:49;21.70;53.90
45803;DHT22;31504;51.716;9.184;2023-09-19T16:19:50;21.80;53.20
45803;DHT22;31504;51.716;9.184;2023-09-19T16:22:51;21.80;53.20
45803;DHT22;31504;51.716;9.184;2023-09-19T16:26:00;21.90;53.30
45803;DHT22;31504;51.716;9.184;2023-09-19T16:29:00;21.90;53.40
45803;DHT22;31504;51.716;9.184;2023-09-19T16:32:01;21.90;53.40
45803;DHT22;31504;51.716;9.184;2023-09-19T16:35:02;21.80;53.40
45803;DHT22;31504;51.716;9.184;2023-09-19T16:38:05;21.90;53.60
45803;DHT22;31504;51.716;9.184;2023-09-19T16:41:06;21.90;53.50
45803;DHT22;31504;51.716;9.184;2023-09-19T16:44:08;21.90;53.40
45803;DHT22;31504;51.716;9.184;2023-09-19T16:47:09;21.80;53.30
45803;DHT22;31504;51.716;9.184;2023-09-19T16:50:09;21.90;53.40
45803;DHT22;31504;51.716;9.184;2023-09-19T16:53:10;21.90;53.50
45803;DHT22;31504;51.716;9.184;2023-09-19T16:56:11;21.90;53.40
45803;DHT22;31504;51.716;9.184;2023-09-19T16:59:14;21.90;53.30
45803;DHT22;31504;51.716;9.184;2023-09-19T17:02:16;21.90;53.50
45803;DHT22;31504;51.716;9.184;2023-09-19T17:05:16;21.90;53.50
45803;DHT22;31504;51.716;9.184;2023-09-19T17:08:18;21.90;53.50
45803;DHT22;31504;51.716;9.184;2023-09-19T17:11:19;21.90;54.20
45803;DHT22;31504;51.716;9.184;2023-09-19T17:14:20;21.90;53.80
45803;DHT22;31504;51.716;9.184;2023-09-19T17:17:21;21.90;53.80
45803;DHT22;31504;51.716;9.184;2023-09-19T17:20:30;21.90;53.80
45803;DHT22;31504;51.716;9.184;2023-09-19T17:23:31;21.90;53.90
45803;DHT22;31504;51.716;9.184;2023-09-19T17:26:33;21.90;54.10
45803;DHT22;31504;51.716;9.184;2023-09-19T17:29:34;21.90;54.10
45803;DHT22;31504;51.716;9.184;2023-09-19T17:32:34;21.90;54.20
45803;DHT22;31504;51.716;9.184;2023-09-19T17:35:35;21.90;54.20
45803;DHT22;31504;51.716;9.184;2023-09-19T17:38:38;22.00;55.00
45803;DHT22;31504;51.716;9.184;2023-09-19T17:41:39;22.00;54.50
45803;DHT22;31504;51.716;9.184;2023-09-19T17:44:41;22.00;54.50
45803;DHT22;31504;51.716;9.184;2023-09-19T17:47:41;22.00;54.60
45803;DHT22;31504;51.716;9.184;2023-09-19T17:50:42;22.00;54.70
45803;DHT22;31504;51.716;9.184;2023-09-19T17:53:43;22.00;54.90
45803;DHT22;31504;51.716;9.184;2023-09-19T17:56:44;22.00;55.00
45803;DHT22;31504;51.716;9.184;2023-09-19T17:59:44;22.00;54.90
45803;DHT22;31504;51.716;9.184;2023-09-19T18:02:45;22.00;55.20
45803;DHT22;31504;51.716;9.184;2023-09-19T18:05:50;22.00;55.20
45803;DHT22;31504;51.716;9.184;2023-09-19T18:08:52;22.00;55.30
45803;DHT22;31504;51.716;9.184;2023-09-19T18:11:52;22.00;55.30
45803;DHT22;31504;51.716;9.184;2023-09-19T18:14:53;22.00;55.50
45803;DHT22;31504;51.716;9.184;2023-09-19T18:17:53;22.00;55.60
45803;DHT22;31504;51.716;9.184;2023-09-19T18:20:54;22.00;55.80
45803;DHT22;31504;51.716;9.184;2023-09-19T18:23:55;22.10;55.90
45803;DHT22;31504;51.716;9.184;2023-09-19T18:26:57;22.00;55.90
45803;DHT22;31504;51.716;9.184;2023-09-19T18:29:57;22.00;56.00
45803;DHT22;31504;51.716;9.184;2023-09-19T18:32:59;22.10;56.10
45803;DHT22;31504;51.716;9.184;2023-09-19T18:36:00;22.00;56.20
45803;DHT22;31504;51.716;9.184;2023-09-19T18:39:02;22.00;56.10
45803;DHT22;31504;51.716;9.184;2023-09-19T18:42:04;22.00;56.30
45803;DHT22;31504;51.716;9.184;2023-09-19T18:45:05;22.00;56.30
45803;DHT22;31504;51.716;9.184;2023-09-19T18:48:05;22.00;56.20
45803;DHT22;31504;51.716;9.184;2023-09-19T18:51:06;22.00;56.20
45803;DHT22;31504;51.716;9.184;2023-09-19T18:54:07;21.90;56.30
45803;DHT22;31504;51.716;9.184;2023-09-19T18:57:07;21.90;56.20
45803;DHT22;31504;51.716;9.184;2023-09-19T19:00:08;21.90;56.20
45803;DHT22;31504;51.716;9.184;2023-09-19T19:03:10;22.00;56.20
45803;DHT22;31504;51.716;9.184;2023-09-19T19:06:13;21.90;56.00
45803;DHT22;31504;51.716;9.184;2023-09-19T19:09:17;21.90;56.10
45803;DHT22;31504;51.716;9.184;2023-09-19T19:12:19;22.00;56.50
45803;DHT22;31504;51.716;9.184;2023-09-19T19:15:20;22.00;56.60
45803;DHT22;31504;51.716;9.184;2023-09-19T19:18:21;22.10;56.80
45803;DHT22;31504;51.716;9.184;2023-09-19T19:21:21;22.10;56.90
45803;DHT22;31504;51.716;9.184;2023-09-19T19:24:22;22.20;56.80
45803;DHT22;31504;51.716;9.184;2023-09-19T19:27:23;22.10;56.80
45803;DHT22;31504;51.716;9.184;2023-09-19T19:30:23;22.20;56.80
45803;DHT22;31504;51.716;9.184;2023-09-19T19:33:24;22.20;56.80
45803;DHT22;31504;51.716;9.184;2023-09-19T19:36:26;22.20;56.90
45803;DHT22;31504;51.716;9.184;2023-09-19T19:39:26;22.20;56.90
45803;DHT22;31504;51.716;9.184;2023-09-19T19:42:28;22.20;56.90